35.5°F
Current conditions from King Hill
Updated every 5 minutes
 
  Thursday April 24, 2014

Station Historical Data
Daily Summary for December 16, 2011 Units:  Metric    English   Both
« Previous Day
Next Day »
Daily Weekly Monthly Yearly Custom
  High: Low: Average:
Temperature: 8.3 °C -2.9 °C 2.7 °C
Dew Point: 6.7 °C -5.4 °C -1.2 °C
Humidity: 90% 69% 76%
Wind Speed: 33.8km/h 1.6km/h 11.1km/h
Wind Gust: 74km/h - -
Wind- - West
Pressure: 1017.5 hPa 998.9 hPa -
Precipitation: 0 mm    
Historical Graphs
 
 
Tabular Data for December 16, 2011
Time Temperature Dew Point Pressure Wind Wind Speed Wind Gust Humidity Daily Rainfall
00:00 8.3 °C 6.7 °C 998.9 hPa SW 11.3 km/h 19.3 km/h 90% 0 mm
00:05 8.2 °C 6.7 °C 999.2 hPa SW 9.7 km/h 20.9 km/h 90% 0 mm
00:10 8.2 °C 6.6 °C 998.9 hPa SW 6.4 km/h 20.9 km/h 90% 0 mm
00:15 8.1 °C 6.6 °C 998.9 hPa SW 11.3 km/h 17.7 km/h 90% 0 mm
00:25 8.1 °C 6.2 °C 998.9 hPa WSW 11.3 km/h 27.4 km/h 88% 0 mm
00:30 8.2 °C 5.8 °C 998.9 hPa WSW 19.3 km/h 37 km/h 85% 0 mm
00:35 8.3 °C 5.7 °C 998.9 hPa SW 12.9 km/h 37 km/h 84% 0 mm
00:40 8.2 °C 5.8 °C 998.9 hPa WSW 8 km/h 27.4 km/h 85% 0 mm
00:45 8.1 °C 5.7 °C 998.9 hPa WSW 11.3 km/h 20.9 km/h 85% 0 mm
00:50 7.9 °C 5.6 °C 998.9 hPa WSW 6.4 km/h 20.9 km/h 85% 0 mm
00:55 7.9 °C 5.7 °C 998.9 hPa WSW 11.3 km/h 20.9 km/h 86% 0 mm
01:00 7.8 °C 5.4 °C 998.9 hPa SW 9.7 km/h 20.9 km/h 85% 0 mm
01:05 7.9 °C 5.4 °C 998.9 hPa WSW 9.7 km/h 25.7 km/h 84% 0 mm
01:15 8.2 °C 4.6 °C 998.9 hPa WSW 11.3 km/h 27.4 km/h 78% 0 mm
01:20 8.2 °C 4.4 °C 998.9 hPa WSW 11.3 km/h 22.5 km/h 77% 0 mm
01:25 8.2 °C 4.4 °C 998.9 hPa WSW 11.3 km/h 20.9 km/h 77% 0 mm
01:30 8.1 °C 4.3 °C 999.2 hPa West 11.3 km/h 20.9 km/h 77% 0 mm
01:35 8 °C 4.2 °C 999.2 hPa WSW 12.9 km/h 22.5 km/h 77% 0 mm
01:40 8.1 °C 4.1 °C 999.2 hPa WSW 14.5 km/h 24.1 km/h 76% 0 mm
01:45 8 °C 4.1 °C 999.2 hPa SW 6.4 km/h 25.7 km/h 76% 0 mm
01:50 7.9 °C 3.8 °C 999.2 hPa West 11.3 km/h 27.4 km/h 75% 0 mm
01:55 8.2 °C 3.4 °C 999.2 hPa WSW 19.3 km/h 35.4 km/h 72% 0 mm
02:00 8.1 °C 3.6 °C 999.5 hPa WSW 8 km/h 35.4 km/h 73% 0 mm
02:05 8 °C 3.3 °C 999.5 hPa West 12.9 km/h 25.7 km/h 72% 0 mm
02:10 8 °C 3.3 °C 999.5 hPa WSW 9.7 km/h 27.4 km/h 72% 0 mm
02:15 8 °C 3.3 °C 999.5 hPa WSW 14.5 km/h 27.4 km/h 72% 0 mm
02:20 8.1 °C 3.1 °C 999.9 hPa WSW 14.5 km/h 25.7 km/h 71% 0 mm
02:25 8.1 °C 3.1 °C 999.9 hPa WSW 12.9 km/h 33.8 km/h 71% 0 mm
02:30 8.1 °C 2.9 °C 999.9 hPa WSW 20.9 km/h 40.2 km/h 70% 0 mm
02:40 7.8 °C 2.7 °C 999.9 hPa WSW 12.9 km/h 35.4 km/h 70% 0 mm
02:45 7.7 °C 2.8 °C 999.9 hPa West 12.9 km/h 29 km/h 71% 0 mm
02:50 7.7 °C 2.6 °C 999.9 hPa West 17.7 km/h 30.6 km/h 70% 0 mm
02:55 7.7 °C 2.3 °C 999.9 hPa West 14.5 km/h 30.6 km/h 69% 0 mm
03:00 7.6 °C 2.6 °C 999.9 hPa WSW 9.7 km/h 27.4 km/h 71% 0 mm
03:05 7.4 °C 2.5 °C 999.9 hPa SW 14.5 km/h 29 km/h 71% 0 mm
03:10 7.3 °C 2.6 °C 1000.2 hPa WSW 16.1 km/h 30.6 km/h 72% 0 mm
03:15 7.1 °C 2.6 °C 1000.2 hPa WSW 12.9 km/h 30.6 km/h 73% 0 mm
03:20 7 °C 2.5 °C 1000.2 hPa West 16.1 km/h 27.4 km/h 73% 0 mm
03:25 7 °C 2.5 °C 1000.2 hPa WSW 16.1 km/h 30.6 km/h 73% 0 mm
03:30 6.9 °C 2.4 °C 1000.6 hPa WSW 20.9 km/h 37 km/h 73% 0 mm
03:35 6.8 °C 2.5 °C 1000.6 hPa WSW 11.3 km/h 37 km/h 74% 0 mm
03:40 6.7 °C 2.4 °C 1000.9 hPa WSW 14.5 km/h 27.4 km/h 74% 0 mm
03:45 6.7 °C 2 °C 1000.9 hPa WSW 33.8 km/h 74 km/h 72% 0 mm
03:50 6.1 °C 1.6 °C 1000.9 hPa WSW 20.9 km/h 74 km/h 73% 0 mm
03:54 5.5 °C 1.2 °C 1000.9 hPa West 20.9 km/h 46.7 km/h 74% 0 mm
04:00 5.3 °C 1.4 °C 1001.2 hPa WSW 11.3 km/h 37 km/h 76% 0 mm
04:05 5.3 °C 1.4 °C 1001.2 hPa WSW 12.9 km/h 27.4 km/h 76% 0 mm
04:10 5.4 °C 1.7 °C 1001.6 hPa WSW 17.7 km/h 37 km/h 77% 0 mm
04:14 5.4 °C 1.7 °C 1001.6 hPa WSW 14.5 km/h 37 km/h 77% 0 mm
04:20 5.4 °C 1.9 °C 1001.6 hPa West 14.5 km/h 25.7 km/h 78% 0 mm
04:25 5.4 °C 1.9 °C 1001.6 hPa WSW 12.9 km/h 29 km/h 78% 0 mm
04:30 5.4 °C 1.6 °C 1001.6 hPa WSW 16.1 km/h 33.8 km/h 76% 0 mm
04:35 5.5 °C 1.6 °C 1001.9 hPa WSW 16.1 km/h 33.8 km/h 76% 0 mm
04:45 5.4 °C 1.5 °C 1002.3 hPa WSW 14.5 km/h 32.2 km/h 76% 0 mm
04:50 5.3 °C 1.4 °C 1002.3 hPa WSW 12.9 km/h 32.2 km/h 76% 0 mm
04:59 5.3 °C 1.6 °C 1002.6 hPa West 12.9 km/h 27.4 km/h 77% 0 mm
05:05 5.3 °C 1.6 °C 1002.6 hPa SW 12.9 km/h 20.9 km/h 77% 0 mm
05:10 5.2 °C 1.5 °C 1002.9 hPa WSW 11.3 km/h 20.9 km/h 77% 0 mm
05:15 5.2 °C 1.7 °C 1002.9 hPa WSW 12.9 km/h 25.7 km/h 78% 0 mm
05:20 5.2 °C 1.7 °C 1003.3 hPa West 16.1 km/h 32.2 km/h 78% 0 mm
05:30 5.1 °C 1.6 °C 1003.6 hPa WSW 14.5 km/h 30.6 km/h 78% 0 mm
05:35 5.1 °C 1.6 °C 1003.6 hPa West 11.3 km/h 27.4 km/h 78% 0 mm
05:40 5.1 °C 1.6 °C 1003.9 hPa WSW 11.3 km/h 24.1 km/h 78% 0 mm
05:45 5 °C 1.5 °C 1003.9 hPa WSW 12.9 km/h 24.1 km/h 78% 0 mm
05:49 4.9 °C 1.4 °C 1004.3 hPa West 12.9 km/h 24.1 km/h 78% 0 mm
05:55 4.9 °C 1.2 °C 1004.3 hPa West 12.9 km/h 27.4 km/h 77% 0 mm
06:00 4.9 °C 1.4 °C 1004.3 hPa West 12.9 km/h 27.4 km/h 78% 0 mm
06:05 4.8 °C 1.1 °C 1004.6 hPa West 17.7 km/h 29 km/h 77% 0 mm
06:09 4.8 °C 1.3 °C 1004.6 hPa West 14.5 km/h 32.2 km/h 78% 0 mm
06:15 4.7 °C 1.2 °C 1004.6 hPa West 11.3 km/h 32.2 km/h 78% 0 mm
06:20 4.7 °C 1.2 °C 1005 hPa West 9.7 km/h 25.7 km/h 78% 0 mm
06:25 4.6 °C 1.1 °C 1005 hPa WSW 17.7 km/h 29 km/h 78% 0 mm
06:30 4.6 °C 1.1 °C 1005.3 hPa West 16.1 km/h 30.6 km/h 78% 0 mm
06:35 4.5 °C 1 °C 1005.3 hPa West 14.5 km/h 33.8 km/h 78% 0 mm
06:40 4.4 °C 0.9 °C 1005.3 hPa West 14.5 km/h 33.8 km/h 78% 0 mm
06:49 4.3 °C 0.8 °C 1005.6 hPa West 22.5 km/h 40.2 km/h 78% 0 mm
06:55 4.2 °C 0.7 °C 1005.6 hPa West 19.3 km/h 40.2 km/h 78% 0 mm
07:00 4.1 °C 0.6 °C 1006 hPa West 16.1 km/h 38.6 km/h 78% 0 mm
07:04 4.1 °C 0.8 °C 1006 hPa West 14.5 km/h 35.4 km/h 79% 0 mm
07:10 4.1 °C 0.6 °C 1006.3 hPa West 17.7 km/h 32.2 km/h 78% 0 mm
07:15 4.1 °C 0.6 °C 1006.3 hPa WNW 20.9 km/h 40.2 km/h 78% 0 mm
07:19 4 °C 0.5 °C 1006.7 hPa West 16.1 km/h 40.2 km/h 78% 0 mm
07:24 4 °C 0.5 °C 1006.7 hPa West 17.7 km/h 35.4 km/h 78% 0 mm
07:30 3.9 °C 0.4 °C 1006.7 hPa West 19.3 km/h 35.4 km/h 78% 0 mm
07:40 3.9 °C 0.4 °C 1007 hPa West 17.7 km/h 35.4 km/h 78% 0 mm
07:45 3.9 °C 0.6 °C 1007 hPa WNW 12.9 km/h 35.4 km/h 79% 0 mm
07:50 3.8 °C 0.5 °C 1007.3 hPa West 16.1 km/h 29 km/h 79% 0 mm
07:55 3.7 °C 0.6 °C 1007.3 hPa West 17.7 km/h 29 km/h 80% 0 mm
07:59 3.7 °C 0.6 °C 1007.3 hPa WNW 9.7 km/h 30.6 km/h 80% 0 mm
08:05 3.7 °C 0.4 °C 1007.7 hPa West 14.5 km/h 30.6 km/h 79% 0 mm
08:10 3.7 °C 0.4 °C 1007.7 hPa WNW 22.5 km/h 32.2 km/h 79% 0 mm
08:15 3.7 °C 0.4 °C 1008 hPa WNW 17.7 km/h 32.2 km/h 79% 0 mm
08:20 3.6 °C 0.3 °C 1008 hPa WNW 20.9 km/h 33.8 km/h 79% 0 mm
08:30 3.6 °C 0.3 °C 1009 hPa West 19.3 km/h 35.4 km/h 79% 0 mm
08:35 3.4 °C 0 °C 1009.4 hPa WNW 22.5 km/h 43.5 km/h 78% 0 mm
08:40 3.4 °C 0 °C 1009 hPa WNW 14.5 km/h 43.5 km/h 78% 0 mm
08:44 3.4 °C 0 °C 1009.4 hPa WNW 9.7 km/h 43.5 km/h 78% 0 mm
08:50 3.4 °C -0.2 °C 1009.7 hPa NW 11.3 km/h 43.5 km/h 77% 0 mm
08:55 3.4 °C -0.6 °C 1010 hPa WNW 22.5 km/h 37 km/h 75% 0 mm
09:00 3.4 °C -0.6 °C 1010 hPa NW 22.5 km/h 37 km/h 75% 0 mm
09:04 3.4 °C -0.6 °C 1010 hPa WNW 14.5 km/h 37 km/h 75% 0 mm
09:10 3.4 °C -1 °C 1010.4 hPa WNW 22.5 km/h 40.2 km/h 73% 0 mm
09:15 3.4 °C -0.8 °C 1010.4 hPa WNW 16.1 km/h 40.2 km/h 74% 0 mm
09:20 3.4 °C -0.8 °C 1010.4 hPa NW 9.7 km/h 29 km/h 74% 0 mm
09:24 3.4 °C -1 °C 1010.7 hPa WNW 14.5 km/h 48.3 km/h 73% 0 mm
09:30 3.4 °C -1.2 °C 1011.1 hPa WNW 24.1 km/h 48.3 km/h 72% 0 mm
09:35 3.4 °C -1.1 °C 1011.1 hPa WNW 14.5 km/h 45.1 km/h 72% 0 mm
09:40 3.4 °C -1 °C 1011.4 hPa WNW 17.7 km/h 30.6 km/h 73% 0 mm
09:45 3.4 °C -1.2 °C 1011.4 hPa WNW 17.7 km/h 35.4 km/h 72% 0 mm
09:54 3.2 °C -1.2 °C 1011.7 hPa WNW 14.5 km/h 30.6 km/h 73% 0 mm
10:00 3.2 °C -1.2 °C 1012.1 hPa WNW 19.3 km/h 35.4 km/h 73% 0 mm
10:05 3.1 °C -1.3 °C 1012.1 hPa WNW 19.3 km/h 38.6 km/h 73% 0 mm
10:10 3.1 °C -1.4 °C 1012.1 hPa NW 25.7 km/h 41.8 km/h 72% 0 mm
10:14 3.1 °C -1.4 °C 1012.1 hPa NW 19.3 km/h 41.8 km/h 72% 0 mm
10:19 3.1 °C -1.3 °C 1012.1 hPa NW 22.5 km/h 38.6 km/h 73% 0 mm
10:25 3.1 °C -1.3 °C 1012.1 hPa NW 16.1 km/h 38.6 km/h 73% 0 mm
10:35 3.1 °C -1.3 °C 1012.1 hPa WNW 14.5 km/h 35.4 km/h 73% 0 mm
10:39 3.1 °C -1.3 °C 1012.4 hPa NNW 14.5 km/h 29 km/h 73% 0 mm
10:45 3 °C -1.4 °C 1012.4 hPa NNW 19.3 km/h 32.2 km/h 73% 0 mm
10:50 2.9 °C -1.4 °C 1012.4 hPa NW 17.7 km/h 33.8 km/h 73% 0 mm
10:55 2.9 °C -1.4 °C 1012.4 hPa NW 19.3 km/h 37 km/h 73% 0 mm
10:59 2.9 °C -1.6 °C 1012.8 hPa WNW 17.7 km/h 37 km/h 72% 0 mm
11:05 2.9 °C -1.7 °C 1012.8 hPa NW 11.3 km/h 38.6 km/h 72% 0 mm
11:10 2.9 °C -1.7 °C 1012.8 hPa NNW 8 km/h 38.6 km/h 72% 0 mm
11:15 2.8 °C -1.8 °C 1012.8 hPa NW 11.3 km/h 25.7 km/h 72% 0 mm
11:20 2.7 °C -1.7 °C 1013.1 hPa NW 16.1 km/h 25.7 km/h 73% 0 mm
11:30 2.6 °C -1.8 °C 1013.1 hPa NW 9.7 km/h 24.1 km/h 73% 0 mm
11:35 2.6 °C -1.6 °C 1013.1 hPa NW 11.3 km/h 20.9 km/h 74% 0 mm
11:40 2.7 °C -1.7 °C 1013.1 hPa NW 17.7 km/h 30.6 km/h 73% 0 mm
11:45 2.7 °C -1.7 °C 1013.4 hPa NW 8 km/h 30.6 km/h 73% 0 mm
11:50 2.7 °C -1.6 °C 1013.4 hPa NW 9.7 km/h 22.5 km/h 73% 0 mm
11:54 2.7 °C -1.6 °C 1013.4 hPa NW 12.9 km/h 22.5 km/h 73% 0 mm
11:59 2.8 °C -1.6 °C 1013.4 hPa NW 8 km/h 25.7 km/h 73% 0 mm
12:05 2.9 °C -1.5 °C 1013.4 hPa NW 6.4 km/h 25.7 km/h 73% 0 mm
12:10 3.2 °C -1.2 °C 1013.4 hPa NW 4.8 km/h 20.9 km/h 73% 0 mm
12:14 3.3 °C -1.5 °C 1013.8 hPa NW 8 km/h 20.9 km/h 71% 0 mm
12:19 3.1 °C -1.5 °C 1013.4 hPa NNW 9.7 km/h 29 km/h 72% 0 mm
12:25 2.8 °C -1.7 °C 1013.8 hPa NW 9.7 km/h 29 km/h 72% 0 mm
12:30 2.8 °C -2.2 °C 1013.8 hPa NW 14.5 km/h 29 km/h 70% 0 mm
12:35 2.8 °C -1.9 °C 1013.8 hPa NNW 11.3 km/h 29 km/h 71% 0 mm
12:40 2.7 °C -2.1 °C 1013.4 hPa NW 17.7 km/h 29 km/h 71% 0 mm
12:45 2.7 °C -2.1 °C 1013.4 hPa NNW 9.7 km/h 29 km/h 71% 0 mm
12:50 2.7 °C -2.1 °C 1013.4 hPa NNW 11.3 km/h 24.1 km/h 71% 0 mm
12:55 2.7 °C -2.2 °C 1013.4 hPa NW 14.5 km/h 25.7 km/h 70% 0 mm
12:59 2.7 °C -2.2 °C 1013.8 hPa NW 11.3 km/h 25.7 km/h 70% 0 mm
13:04 2.7 °C -2 °C 1014.1 hPa NNW 11.3 km/h 20.9 km/h 71% 0 mm
13:10 2.7 °C -2.2 °C 1014.1 hPa NW 9.7 km/h 20.9 km/h 70% 0 mm
13:15 2.7 °C -2.1 °C 1014.4 hPa NW 12.9 km/h 22.5 km/h 71% 0 mm
13:19 2.6 °C -2.1 °C 1014.4 hPa NW 12.9 km/h 25.7 km/h 71% 0 mm
13:25 2.6 °C -2.2 °C 1014.8 hPa WNW 14.5 km/h 25.7 km/h 71% 0 mm
13:34 2.4 °C -1.3 °C 1014.8 hPa WNW 16.1 km/h 30.6 km/h 76% 0 mm
13:40 2.3 °C -1.9 °C 1014.8 hPa NW 8 km/h 30.6 km/h 74% 0 mm
13:44 2.2 °C -2 °C 1014.8 hPa NW 6.4 km/h 20.9 km/h 74% 0 mm
13:50 2.2 °C -2.1 °C 1014.8 hPa WNW 11.3 km/h 19.3 km/h 73% 0 mm
13:55 2.2 °C -2.3 °C 1014.8 hPa NW 11.3 km/h 24.1 km/h 72% 0 mm
13:59 2.2 °C -2.5 °C 1014.8 hPa NW 11.3 km/h 24.1 km/h 71% 0 mm
14:04 2.3 °C -2.4 °C 1014.8 hPa NW 9.7 km/h 19.3 km/h 71% 0 mm
14:10 2.3 °C -2.2 °C 1014.8 hPa NW 8 km/h 16.1 km/h 72% 0 mm
14:15 2.3 °C -2.4 °C 1014.8 hPa NW 9.7 km/h 16.1 km/h 71% 0 mm
14:19 2.3 °C -2.2 °C 1015.1 hPa NW 4.8 km/h 16.1 km/h 72% 0 mm
14:25 2.2 °C -2.1 °C 1015.1 hPa WNW 8 km/h 12.9 km/h 73% 0 mm
14:30 2.2 °C -2.2 °C 1015.1 hPa NW 6.4 km/h 14.5 km/h 73% 0 mm
14:34 2.1 °C -2.1 °C 1015.5 hPa NNW 8 km/h 22.5 km/h 74% 0 mm
14:40 2.1 °C -2.1 °C 1015.5 hPa WNW 9.7 km/h 22.5 km/h 74% 0 mm
14:45 2 °C -1.9 °C 1015.5 hPa NNW 9.7 km/h 17.7 km/h 75% 0 mm
14:50 1.9 °C -2 °C 1015.8 hPa NW 8 km/h 16.1 km/h 75% 0 mm
14:54 1.9 °C -2.1 °C 1015.8 hPa WNW 12.9 km/h 24.1 km/h 75% 0 mm
14:59 1.8 °C -2.3 °C 1015.8 hPa WNW 11.3 km/h 24.1 km/h 74% 0 mm
15:05 1.8 °C -2.7 °C 1015.8 hPa WNW 9.7 km/h 22.5 km/h 72% 0 mm
15:10 1.8 °C -2.9 °C 1015.8 hPa NW 8 km/h 22.5 km/h 71% 0 mm
15:14 1.7 °C -3 °C 1015.8 hPa NW 6.4 km/h 22.5 km/h 71% 0 mm
15:20 1.7 °C -3.2 °C 1015.8 hPa NW 8 km/h 19.3 km/h 70% 0 mm
15:24 1.7 °C -3.2 °C 1015.8 hPa NW 6.4 km/h 19.3 km/h 70% 0 mm
15:29 1.7 °C -3.3 °C 1015.8 hPa NW 8 km/h 19.3 km/h 69% 0 mm
15:35 1.7 °C -3.4 °C 1015.8 hPa NW 11.3 km/h 19.3 km/h 69% 0 mm
15:40 1.6 °C -3.5 °C 1015.8 hPa NW 6.4 km/h 20.9 km/h 69% 0 mm
15:45 1.4 °C -3.7 °C 1015.8 hPa NW 11.3 km/h 20.9 km/h 69% 0 mm
15:49 1.3 °C -3.7 °C 1015.8 hPa NW 9.7 km/h 19.3 km/h 69% 0 mm
15:54 1.3 °C -3.6 °C 1015.8 hPa NW 8 km/h 19.3 km/h 70% 0 mm
15:59 1.3 °C -3.6 °C 1015.8 hPa WNW 9.7 km/h 19.3 km/h 70% 0 mm
16:05 1.3 °C -3.6 °C 1015.8 hPa NNW 6.4 km/h 19.3 km/h 70% 0 mm
16:09 1.3 °C -3.6 °C 1016.1 hPa NW 4.8 km/h 12.9 km/h 70% 0 mm
16:14 1.3 °C -3.6 °C 1016.1 hPa WNW 6.4 km/h 9.7 km/h 70% 0 mm
16:20 1.3 °C -3.6 °C 1016.1 hPa NW 4.8 km/h 11.3 km/h 70% 0 mm
16:25 1.3 °C -3.6 °C 1016.1 hPa NW 3.2 km/h 12.9 km/h 70% 0 mm
16:29 1.2 °C -3.7 °C 1016.1 hPa WNW 3.2 km/h 12.9 km/h 70% 0 mm
16:35 1.2 °C -3.7 °C 1016.5 hPa NW 4.8 km/h 12.9 km/h 70% 0 mm
16:39 1.2 °C -3.5 °C 1016.5 hPa NW 3.2 km/h 12.9 km/h 71% 0 mm
16:44 1.2 °C -3.5 °C 1016.5 hPa NNW 4.8 km/h 9.7 km/h 71% 0 mm
16:50 1.1 °C -3.4 °C 1016.5 hPa NNW 3.2 km/h 11.3 km/h 72% 0 mm
16:54 1.1 °C -3.2 °C 1016.5 hPa NW 1.6 km/h 11.3 km/h 73% 0 mm
16:59 1 °C -3.3 °C 1016.5 hPa NNW 6.4 km/h 14.5 km/h 73% 0 mm
17:04 0.9 °C -3.3 °C 1016.1 hPa NNW 3.2 km/h 14.5 km/h 73% 0 mm
17:09 0.8 °C -3.4 °C 1016.1 hPa NW 4.8 km/h 11.3 km/h 73% 0 mm
17:15 0.8 °C -3.7 °C 1016.1 hPa NW 6.4 km/h 11.3 km/h 72% 0 mm
17:19 0.8 °C -3.7 °C 1016.1 hPa NW 4.8 km/h 11.3 km/h 72% 0 mm
17:25 0.8 °C -3.7 °C 1016.1 hPa NW 3.2 km/h 9.7 km/h 72% 0 mm
17:29 0.8 °C -3.5 °C 1016.5 hPa Calm   9.7 km/h 73% 0 mm
17:34 0.8 °C -3.7 °C 1016.5 hPa Calm   6.4 km/h 72% 0 mm
17:40 0.8 °C -3.7 °C 1016.8 hPa NW 8 km/h 9.7 km/h 72% 0 mm
17:44 0.8 °C -3.4 °C 1016.8 hPa NW 3.2 km/h 9.7 km/h 73% 0 mm
17:49 0.8 °C -3.4 °C 1016.5 hPa NW 8 km/h 12.9 km/h 73% 0 mm
17:54 0.8 °C -3.4 °C 1016.5 hPa NW 6.4 km/h 16.1 km/h 73% 0 mm
17:59 0.8 °C -3.5 °C 1016.5 hPa NW 4.8 km/h 16.1 km/h 73% 0 mm
18:05 0.7 °C -3.6 °C 1016.5 hPa NNW 1.6 km/h 12.9 km/h 73% 0 mm
18:09 0.6 °C -3.6 °C 1016.8 hPa Calm   6.4 km/h 74% 0 mm
18:14 0.3 °C -3.8 °C 1016.8 hPa NNW 1.6 km/h 3.2 km/h 74% 0 mm
18:20 0.1 °C -4 °C 1016.8 hPa NNW 1.6 km/h 6.4 km/h 74% 0 mm
18:24 -0.1 °C -3.9 °C 1016.8 hPa Calm   6.4 km/h 75% 0 mm
18:29 -0.3 °C -4 °C 1016.8 hPa Calm   6.4 km/h 76% 0 mm
18:35 -0.4 °C -4.1 °C 1017.2 hPa Calm   4.8 km/h 76% 0 mm
18:39 -0.4 °C -4 °C 1016.8 hPa Calm   4.8 km/h 77% 0 mm
18:45 -0.5 °C -4.1 °C 1016.8 hPa Calm     77% 0 mm
18:49 -0.5 °C -4.1 °C 1016.8 hPa Calm     77% 0 mm
18:54 -0.6 °C -4.2 °C 1017.2 hPa Calm   3.2 km/h 77% 0 mm
18:59 -0.7 °C -4.2 °C 1016.8 hPa Calm   3.2 km/h 77% 0 mm
19:05 -0.8 °C -4.1 °C 1017.2 hPa Calm     78% 0 mm
19:09 -0.8 °C -4.2 °C 1017.2 hPa NNW 1.6 km/h 4.8 km/h 78% 0 mm
19:14 -0.9 °C -4.2 °C 1017.5 hPa NNW 1.6 km/h 6.4 km/h 78% 0 mm
19:20 -0.9 °C -4.1 °C 1017.5 hPa NNW 4.8 km/h 9.7 km/h 79% 0 mm
19:24 -0.9 °C -4.1 °C 1017.5 hPa NNW 1.6 km/h 9.7 km/h 79% 0 mm
19:30 -0.9 °C -4.1 °C 1017.5 hPa NNW 3.2 km/h 9.7 km/h 79% 0 mm
19:34 -0.9 °C -4.1 °C 1017.5 hPa NNW 1.6 km/h 9.7 km/h 79% 0 mm
19:39 -0.9 °C -4.1 °C 1017.5 hPa NNW 1.6 km/h 8 km/h 79% 0 mm
19:44 -1 °C -4.2 °C 1017.5 hPa NNW 3.2 km/h 8 km/h 79% 0 mm
19:49 -1.1 °C -4.2 °C 1017.5 hPa Calm   8 km/h 79% 0 mm
19:55 -1.1 °C -4.2 °C 1017.2 hPa NNW 1.6 km/h 4.8 km/h 79% 0 mm
19:59 -1.1 °C -4.3 °C 1017.2 hPa Calm   4.8 km/h 79% 0 mm
20:04 -1.2 °C -4.3 °C 1016.8 hPa Calm   4.8 km/h 79% 0 mm
20:09 -1.2 °C -4.4 °C 1016.8 hPa NNW 1.6 km/h 4.8 km/h 79% 0 mm
20:14 -1.3 °C -4.5 °C 1016.8 hPa Calm   4.8 km/h 79% 0 mm
20:19 -1.3 °C -4.5 °C 1016.8 hPa Calm   4.8 km/h 79% 0 mm
20:24 -1.3 °C -4.5 °C 1016.8 hPa Calm   3.2 km/h 79% 0 mm
20:30 -1.4 °C -4.6 °C 1016.5 hPa Calm   4.8 km/h 79% 0 mm
20:35 -1.4 °C -4.6 °C 1016.5 hPa ENE 1.6 km/h 4.8 km/h 79% 0 mm
20:39 -1.4 °C -4.6 °C 1016.5 hPa NE 1.6 km/h 6.4 km/h 79% 0 mm
20:45 -1.5 °C -4.7 °C 1016.5 hPa ENE 1.6 km/h 6.4 km/h 79% 0 mm
20:49 -1.5 °C -4.7 °C 1016.5 hPa NE 1.6 km/h 8 km/h 79% 0 mm
20:54 -1.6 °C -4.9 °C 1016.5 hPa NE 4.8 km/h 11.3 km/h 78% 0 mm
20:59 -1.6 °C -4.8 °C 1016.5 hPa NNE 1.6 km/h 11.3 km/h 79% 0 mm
21:04 -1.7 °C -4.8 °C 1016.5 hPa Calm   6.4 km/h 79% 0 mm
21:10 -1.7 °C -5 °C 1016.5 hPa Calm   4.8 km/h 78% 0 mm
21:14 -1.7 °C -4.9 °C 1016.5 hPa Calm   4.8 km/h 79% 0 mm
21:19 -1.7 °C -4.9 °C 1016.5 hPa Calm   6.4 km/h 79% 0 mm
21:25 -1.7 °C -4.9 °C 1016.5 hPa Calm   6.4 km/h 79% 0 mm
21:30 -1.8 °C -4.9 °C 1016.5 hPa NNE 3.2 km/h 8 km/h 79% 0 mm
21:39 -1.8 °C -4.9 °C 1016.1 hPa Calm   6.4 km/h 79% 0 mm
21:44 -1.8 °C -5 °C 1016.1 hPa Calm   1.6 km/h 79% 0 mm
21:49 -1.8 °C -5 °C 1016.1 hPa Calm   1.6 km/h 79% 0 mm
21:54 -1.8 °C -5 °C 1016.1 hPa NNE 1.6 km/h 6.4 km/h 79% 0 mm
21:59 -1.8 °C -5 °C 1016.1 hPa Calm   6.4 km/h 79% 0 mm
22:04 -1.8 °C -5 °C 1016.1 hPa Calm   1.6 km/h 79% 0 mm
22:09 -1.8 °C -5 °C 1016.1 hPa NNE 1.6 km/h 6.4 km/h 79% 0 mm
22:14 -1.9 °C -5.1 °C 1016.1 hPa NNE 1.6 km/h 6.4 km/h 79% 0 mm
22:19 -1.9 °C -5.1 °C 1016.5 hPa NNE 1.6 km/h 6.4 km/h 79% 0 mm
22:24 -1.9 °C -5.1 °C 1016.1 hPa Calm   6.4 km/h 79% 0 mm
22:29 -2 °C -5.3 °C 1016.1 hPa Calm   6.4 km/h 78% 0 mm
22:35 -2 °C -5.3 °C 1016.1 hPa Calm   8 km/h 78% 0 mm
22:39 -2.1 °C -5.4 °C 1016.1 hPa NNE 1.6 km/h 8 km/h 78% 0 mm
22:44 -2.1 °C -5.2 °C 1016.1 hPa Calm   4.8 km/h 79% 0 mm
22:49 -2.1 °C -5.2 °C 1016.1 hPa Calm   4.8 km/h 79% 0 mm
22:54 -2.1 °C -5.2 °C 1016.1 hPa NNE 3.2 km/h 8 km/h 79% 0 mm
22:59 -2.2 °C -5.3 °C 1016.1 hPa NNE 1.6 km/h 9.7 km/h 79% 0 mm
23:04 -2.2 °C -5.2 °C 1016.1 hPa NNE 1.6 km/h 9.7 km/h 80% 0 mm
23:09 -2.3 °C -5.3 °C 1016.1 hPa ENE 3.2 km/h 8 km/h 80% 0 mm
23:14 -2.3 °C -5.3 °C 1016.1 hPa NNE 1.6 km/h 8 km/h 80% 0 mm
23:19 -2.4 °C -5.4 °C 1016.1 hPa NNE 3.2 km/h 8 km/h 80% 0 mm
23:24 -2.5 °C -5.3 °C 1016.1 hPa Calm   8 km/h 81% 0 mm
23:30 -2.6 °C -5.4 °C 1016.1 hPa NE 1.6 km/h 8 km/h 81% 0 mm
23:40 -2.7 °C -5.3 °C 1016.1 hPa Calm   8 km/h 82% 0 mm
23:49 -2.8 °C -5.3 °C 1016.1 hPa North 1.6 km/h 6.4 km/h 83% 0 mm
23:54 -2.8 °C -5.3 °C 1015.8 hPa Calm   4.8 km/h 83% 0 mm
23:59 -2.9 °C -5.4 °C 1015.8 hPa Calm   4.8 km/h 83% 0 mm
Westford Weather
Compliments of Weather Underground

 
 
Current Radar Loop:

Copyright © WestfordWeather.net 2007-2014. All rights reserved.